createdAt,value
2019-04-25T00:02:27.433Z,102094.16
2019-04-25T00:04:59.164Z,102092.70
2019-04-25T00:07:31.272Z,102090.77
2019-04-25T00:10:06.683Z,102091.98
2019-04-25T00:12:38.382Z,102090.66
2019-04-25T00:15:11.073Z,102093.19
2019-04-25T00:17:44.441Z,102089.20
2019-04-25T00:20:16.110Z,102094.47
2019-04-25T00:22:53.349Z,102095.02
2019-04-25T00:25:29.554Z,102093.05
2019-04-25T00:28:01.842Z,102093.23
2019-04-25T00:30:33.632Z,102097.18
2019-04-25T00:33:05.683Z,102101.20
2019-04-25T00:35:37.165Z,102095.44
2019-04-25T00:38:08.625Z,102089.53
2019-04-25T00:40:40.078Z,102090.80
2019-04-25T00:43:13.247Z,102097.64
2019-04-25T00:45:45.727Z,102106.28
2019-04-25T00:48:17.494Z,102099.88
2019-04-25T00:50:48.971Z,102098.52
2019-04-25T00:53:21.233Z,102106.03
2019-04-25T00:55:53.894Z,102103.12
2019-04-25T00:58:27.199Z,102093.83
2019-04-25T01:01:01.954Z,102107.63
2019-04-25T01:03:35.438Z,102100.80
2019-04-25T01:06:07.067Z,102102.50
2019-04-25T01:08:38.747Z,102101.37
2019-04-25T01:11:11.506Z,102098.16
2019-04-25T01:13:43.073Z,102097.69
2019-04-25T01:16:14.812Z,102087.11
2019-04-25T01:18:46.805Z,102091.81
2019-04-25T01:21:18.375Z,102087.50
2019-04-25T01:23:49.998Z,102094.19
2019-04-25T01:26:21.660Z,102085.17
2019-04-25T01:28:54.067Z,102090.45
2019-04-25T01:31:28.359Z,102092.55
2019-04-25T01:33:59.991Z,102089.41
2019-04-25T01:36:35.888Z,102092.55
2019-04-25T01:39:14.297Z,102088.81
2019-04-25T01:41:47.686Z,102093.72
2019-04-25T01:44:20.807Z,102087.45
2019-04-25T01:46:54.189Z,102087.23
2019-04-25T01:49:25.965Z,102088.35
2019-04-25T01:51:58.616Z,102087.61
2019-04-25T01:54:31.019Z,102091.42
2019-04-25T01:57:04.362Z,102088.50
2019-04-25T01:59:36.145Z,102090.64
2019-04-25T02:02:09.363Z,102091.97
2019-04-25T02:04:40.937Z,102087.65
2019-04-25T02:07:13.486Z,102093.28
2019-04-25T02:09:45.242Z,102082.48
2019-04-25T02:12:27.874Z,102088.42
2019-04-25T02:14:59.918Z,102084.99
2019-04-25T02:17:31.545Z,102091.85
2019-04-25T02:20:05.214Z,102093.47
2019-04-25T02:22:36.709Z,102095.27
2019-04-25T02:25:08.439Z,102094.63
2019-04-25T02:27:39.974Z,102093.45
2019-04-25T02:30:15.205Z,102100.44
2019-04-25T02:32:46.202Z,102100.05
2019-04-25T02:35:18.854Z,102106.76
2019-04-25T02:37:50.407Z,102102.69
2019-04-25T02:40:23.800Z,102101.53
2019-04-25T02:42:58.145Z,102104.28
2019-04-25T02:45:38.819Z,102103.71
2019-04-25T02:48:24.334Z,102103.82
2019-04-25T02:51:01.651Z,102106.91
2019-04-25T02:53:44.632Z,102107.89
2019-04-25T02:56:30.551Z,102111.05
2019-04-25T02:58:49.954Z,102114.77
2019-04-25T03:01:25.680Z,102110.16
2019-04-25T03:03:55.062Z,102110.12
2019-04-25T03:06:26.633Z,102106.74
2019-04-25T03:09:00.091Z,102114.75
2019-04-25T03:11:31.698Z,102113.08
2019-04-25T03:14:06.621Z,102112.20
2019-04-25T03:16:36.435Z,102111.72
2019-04-25T03:19:09.620Z,102115.93
2019-04-25T03:21:45.781Z,102112.05
2019-04-25T03:24:17.311Z,102115.13
2019-04-25T03:26:48.968Z,102115.47
2019-04-25T03:29:20.428Z,102117.09
2019-04-25T03:31:52.011Z,102119.30
2019-04-25T03:34:25.306Z,102111.58
2019-04-25T03:36:56.763Z,102117.41
2019-04-25T03:39:28.234Z,102116.52
2019-04-25T03:41:59.743Z,102114.27
2019-04-25T03:44:31.333Z,102125.98
2019-04-25T03:47:05.290Z,102119.33
2019-04-25T03:49:36.183Z,102122.70
2019-04-25T03:52:07.978Z,102122.16
2019-04-25T03:54:39.471Z,102121.95
2019-04-25T03:57:10.946Z,102121.83
2019-04-25T03:59:43.672Z,102116.83
2019-04-25T04:02:15.582Z,102123.86
2019-04-25T04:04:47.048Z,102123.88
2019-04-25T04:07:18.590Z,102123.02
2019-04-25T04:09:50.137Z,102129.21
2019-04-25T04:12:21.619Z,102122.89
2019-04-25T04:14:53.783Z,102128.80
2019-04-25T04:17:33.911Z,102134.95
2019-04-25T04:20:09.399Z,102134.08
2019-04-25T04:22:41.769Z,102138.53
2019-04-25T04:25:14.755Z,102136.83
2019-04-25T04:27:46.228Z,102134.77
2019-04-25T04:30:31.436Z,102131.73
2019-04-25T04:33:03.637Z,102142.36
2019-04-25T04:35:36.560Z,102140.08
2019-04-25T04:38:08.314Z,102137.83
2019-04-25T04:40:40.087Z,102132.19
2019-04-25T04:43:12.077Z,102130.30
2019-04-25T04:45:45.630Z,102138.41
2019-04-25T04:48:17.297Z,102144.83
2019-04-25T04:50:49.163Z,102139.83
2019-04-25T04:53:21.025Z,102143.97
2019-04-25T04:55:54.309Z,102146.30
2019-04-25T04:58:25.896Z,102135.91
2019-04-25T05:00:57.947Z,102140.61
2019-04-25T05:03:37.311Z,102143.97
2019-04-25T05:06:10.997Z,102134.86
2019-04-25T05:08:47.444Z,102142.58
2019-04-25T05:11:19.903Z,102134.81
2019-04-25T05:13:51.581Z,102144.27
2019-04-25T05:16:23.871Z,102147.34
2019-04-25T05:18:55.512Z,102144.70
2019-04-25T05:21:27.474Z,102147.44
2019-04-25T05:23:59.342Z,102149.07
2019-04-25T05:26:31.094Z,102150.31
2019-04-25T05:29:03.668Z,102146.70
2019-04-25T05:31:39.640Z,102148.05
2019-04-25T05:34:11.189Z,102147.08
2019-04-25T05:36:43.852Z,102137.56
2019-04-25T05:39:17.780Z,102139.52
2019-04-25T05:41:59.670Z,102150.34
2019-04-25T05:44:31.553Z,102145.70
2019-04-25T05:47:04.145Z,102144.30
2019-04-25T05:49:36.080Z,102140.97
2019-04-25T05:52:08.048Z,102140.66
2019-04-25T05:54:39.846Z,102141.61
2019-04-25T05:57:11.563Z,102140.45
2019-04-25T05:59:43.720Z,102136.27
2019-04-25T06:02:15.488Z,102137.76
2019-04-25T06:04:47.151Z,102139.16
2019-04-25T06:07:19.403Z,102139.70
2019-04-25T06:09:54.295Z,102137.32
2019-04-25T06:12:31.435Z,102142.35
2019-04-25T06:15:04.630Z,102136.30
2019-04-25T06:17:38.947Z,102134.39
2019-04-25T06:20:13.433Z,102131.24
2019-04-25T06:22:56.083Z,102134.81
2019-04-25T06:25:32.990Z,102126.08
2019-04-25T06:28:13.736Z,102127.93
2019-04-25T06:30:45.482Z,102129.43
2019-04-25T06:33:17.317Z,102130.91
2019-04-25T06:35:49.202Z,102125.13
2019-04-25T06:38:21.349Z,102123.64
2019-04-25T06:40:53.587Z,102130.47
2019-04-25T06:43:25.899Z,102119.36
2019-04-25T06:46:15.287Z,102118.55
2019-04-25T06:48:48.790Z,102126.00
2019-04-25T06:51:22.426Z,102121.05
2019-04-25T06:53:54.140Z,102119.21
2019-04-25T06:56:26.130Z,102119.03
2019-04-25T06:58:57.868Z,102120.70
2019-04-25T07:01:30.422Z,102111.84
2019-04-25T07:04:02.043Z,102114.50
2019-04-25T07:06:34.984Z,102115.47
2019-04-25T07:09:11.062Z,102111.64
2019-04-25T07:11:43.999Z,102112.08
2019-04-25T07:14:15.935Z,102111.01
2019-04-25T07:16:47.867Z,102119.95
2019-04-25T07:19:19.728Z,102116.58
2019-04-25T07:21:51.646Z,102115.76
2019-04-25T07:24:24.847Z,102117.11
2019-04-25T07:26:58.480Z,102115.58
2019-04-25T07:29:38.325Z,102108.96
2019-04-25T07:32:20.729Z,102107.58
2019-04-25T07:34:53.622Z,102110.79
2019-04-25T07:37:29.839Z,102116.19
2019-04-25T07:40:01.646Z,102105.97
2019-04-25T07:42:35.442Z,102110.34
2019-04-25T07:45:14.075Z,102110.45
2019-04-25T07:47:45.961Z,102112.56
2019-04-25T07:50:17.994Z,102110.47
2019-04-25T07:52:49.549Z,102106.64
2019-04-25T07:55:21.312Z,102096.53
2019-04-25T07:57:53.418Z,102102.98
2019-04-25T08:00:27.282Z,102103.72
2019-04-25T08:02:58.843Z,102097.89
2019-04-25T08:05:31.390Z,102095.63
2019-04-25T08:08:03.556Z,102090.27
2019-04-25T08:11:01.140Z,102094.67
2019-04-25T08:13:36.199Z,102101.75
2019-04-25T08:16:09.810Z,102097.45
2019-04-25T08:18:43.367Z,102090.54
2019-04-25T08:21:15.395Z,102093.33
2019-04-25T08:23:47.687Z,102093.88
2019-04-25T08:26:19.272Z,102089.67
2019-04-25T08:28:55.705Z,102086.61
2019-04-25T08:31:24.119Z,102087.23
2019-04-25T08:33:55.857Z,102072.53
2019-04-25T08:36:27.754Z,102070.08
2019-04-25T08:38:59.603Z,102074.64
2019-04-25T08:41:32.406Z,102065.47
2019-04-25T08:44:04.871Z,102070.13
2019-04-25T08:46:38.414Z,102068.54
2019-04-25T08:49:27.624Z,102063.81
2019-04-25T08:52:00.204Z,102058.28
2019-04-25T08:54:49.666Z,102053.86
2019-04-25T08:57:25.741Z,102053.45
2019-04-25T09:00:01.927Z,102051.77
2019-04-25T09:02:38.527Z,102052.36
2019-04-25T09:05:24.879Z,102048.28
2019-04-25T09:07:56.508Z,102041.20
2019-04-25T09:10:28.297Z,102042.09
2019-04-25T09:13:00.435Z,102035.03
2019-04-25T09:15:33.729Z,102038.56
2019-04-25T09:18:05.697Z,102032.27
2019-04-25T09:20:39.606Z,102022.66
2019-04-25T09:23:11.287Z,102027.80
2019-04-25T09:25:45.949Z,102017.95
2019-04-25T09:28:17.008Z,102015.55
2019-04-25T09:30:48.545Z,102017.52
2019-04-25T09:33:20.017Z,102012.23
2019-04-25T09:35:53.987Z,102015.77
2019-04-25T09:38:25.614Z,102012.69
2019-04-25T09:40:57.388Z,102012.69
2019-04-25T09:43:29.347Z,102010.88
2019-04-25T09:46:13.287Z,102006.77
2019-04-25T09:48:58.951Z,102000.35
2019-04-25T09:51:33.577Z,102001.04
2019-04-25T09:54:23.927Z,102001.44
2019-04-25T09:56:57.242Z,101995.48
2019-04-25T09:59:30.131Z,101996.16
2019-04-25T10:02:01.905Z,101994.72
2019-04-25T10:04:34.672Z,101989.40
2019-04-25T10:07:06.649Z,101985.19
2019-04-25T10:09:38.312Z,101989.64
2019-04-25T10:12:10.069Z,101985.16
2019-04-25T10:14:59.117Z,101985.19
2019-04-25T10:17:31.089Z,101981.55
2019-04-25T10:20:03.057Z,101982.16
2019-04-25T10:22:34.987Z,101976.88
2019-04-25T10:25:07.103Z,101970.06
2019-04-25T10:27:39.272Z,101969.94
2019-04-25T10:30:17.608Z,101967.42
2019-04-25T10:32:45.388Z,101970.47
2019-04-25T10:35:18.327Z,101963.42
2019-04-25T10:37:50.423Z,101962.02
2019-04-25T10:40:24.709Z,101963.45
2019-04-25T10:42:55.889Z,101964.89
2019-04-25T10:45:27.965Z,101956.46
2019-04-25T10:47:59.688Z,101955.05
2019-04-25T10:50:31.655Z,101947.13
2019-04-25T10:53:04.043Z,101949.86
2019-04-25T10:55:35.848Z,101949.93
2019-04-25T10:58:07.678Z,101952.75
2019-04-25T11:00:46.247Z,101946.38
2019-04-25T11:03:35.725Z,101942.30
2019-04-25T11:06:07.792Z,101946.05
2019-04-25T11:08:40.414Z,101940.41
2019-04-25T11:11:13.852Z,101936.34
2019-04-25T11:13:46.643Z,101942.31
2019-04-25T11:16:18.413Z,101932.22
2019-04-25T11:18:50.174Z,101938.58
2019-04-25T11:21:21.732Z,101924.09
2019-04-25T11:23:55.539Z,101926.89
2019-04-25T11:26:27.403Z,101925.55
2019-04-25T11:28:58.951Z,101923.95
2019-04-25T11:31:33.735Z,101921.78
2019-04-25T11:34:05.649Z,101917.35
2019-04-25T11:36:37.405Z,101912.08
2019-04-25T11:39:29.853Z,101909.36
2019-04-25T11:42:02.238Z,101912.98
2019-04-25T11:44:34.993Z,101915.39
2019-04-25T11:47:08.614Z,101910.89
2019-04-25T11:49:40.356Z,101906.42
2019-04-25T11:52:21.402Z,101897.69
2019-04-25T11:54:46.735Z,101902.98
2019-04-25T11:57:18.709Z,101901.37
2019-04-25T11:59:50.652Z,101898.66
2019-04-25T12:02:23.962Z,101897.36
2019-04-25T12:04:55.552Z,101883.48
2019-04-25T12:07:27.111Z,101890.94
2019-04-25T12:09:58.753Z,101875.59
2019-04-25T12:12:30.404Z,101881.01
2019-04-25T12:15:01.867Z,101879.52
2019-04-25T12:17:35.380Z,101876.31
2019-04-25T12:20:07.916Z,101876.55
2019-04-25T12:22:39.547Z,101874.56
2019-04-25T12:25:11.112Z,101869.73
2019-04-25T12:27:45.474Z,101880.81
2019-04-25T12:30:16.458Z,101873.72
2019-04-25T12:32:48.043Z,101871.51
2019-04-25T12:35:19.712Z,101869.05
2019-04-25T12:37:52.178Z,101863.00
2019-04-25T12:40:24.583Z,101861.56
2019-04-25T12:42:56.541Z,101863.46
2019-04-25T12:45:34.284Z,101859.67
2019-04-25T12:48:07.977Z,101856.42
2019-04-25T12:50:39.584Z,101849.38
2019-04-25T12:53:11.040Z,101851.32
2019-04-25T12:55:44.180Z,101853.58
2019-04-25T12:58:15.886Z,101849.71
2019-04-25T13:00:52.432Z,101849.67
2019-04-25T13:03:21.049Z,101842.56
2019-04-25T13:05:52.663Z,101840.73
2019-04-25T13:08:25.282Z,101835.28
2019-04-25T13:11:07.572Z,101842.02
2019-04-25T13:13:29.958Z,101837.34
2019-04-25T13:16:01.499Z,101830.42
2019-04-25T13:18:33.067Z,101836.94
2019-04-25T13:21:05.521Z,101833.63
2019-04-25T13:23:37.214Z,101831.38
2019-04-25T13:26:08.789Z,101826.39
2019-04-25T13:28:47.725Z,101821.87
2019-04-25T13:31:23.830Z,101821.09
2019-04-25T13:34:04.662Z,101816.91
2019-04-25T13:36:36.327Z,101817.78
2019-04-25T13:39:10.072Z,101811.41
2019-04-25T13:41:43.020Z,101812.98
2019-04-25T13:44:15.465Z,101811.53
2019-04-25T13:46:47.810Z,101812.48
2019-04-25T13:49:19.482Z,101808.02
2019-04-25T13:51:51.818Z,101798.67
2019-04-25T13:54:24.048Z,101800.16
2019-04-25T13:56:56.582Z,101797.96
2019-04-25T13:59:28.372Z,101797.58
2019-04-25T14:02:01.493Z,101795.66
2019-04-25T14:04:35.593Z,101795.14
2019-04-25T14:07:07.215Z,101790.70
2019-04-25T14:09:39.020Z,101791.10
2019-04-25T14:12:10.803Z,101782.47
2019-04-25T14:14:43.805Z,101781.80
2019-04-25T14:17:20.427Z,101777.81
2019-04-25T14:20:04.180Z,101778.84
2019-04-25T14:22:36.073Z,101775.64
2019-04-25T14:25:08.628Z,101772.61
2019-04-25T14:27:40.237Z,101776.80
2019-04-25T14:30:13.555Z,101770.20
2019-04-25T14:32:45.235Z,101772.99
2019-04-25T14:35:16.720Z,101767.11
2019-04-25T14:37:48.194Z,101769.61
2019-04-25T14:40:19.761Z,101758.00
2019-04-25T14:42:51.485Z,101759.80
2019-04-25T14:45:23.080Z,101759.97
2019-04-25T14:47:54.571Z,101759.08
2019-04-25T14:50:26.997Z,101747.53
2019-04-25T14:52:58.962Z,101753.16
2019-04-25T14:55:41.306Z,101745.93
2019-04-25T14:58:17.474Z,101747.83
2019-04-25T15:00:50.590Z,101744.45
2019-04-25T15:03:23.091Z,101739.72
2019-04-25T15:05:55.851Z,101744.33
2019-04-25T15:08:27.397Z,101734.44
2019-04-25T15:10:59.016Z,101737.22
2019-04-25T15:13:30.506Z,101739.19
2019-04-25T15:16:04.756Z,101736.03
2019-04-25T15:18:46.014Z,101737.92
2019-04-25T15:21:08.611Z,101736.04
2019-04-25T15:23:40.068Z,101738.20
2019-04-25T15:26:11.589Z,101731.97
2019-04-25T15:28:43.634Z,101723.61
2019-04-25T15:31:16.289Z,101723.34
2019-04-25T15:33:47.998Z,101720.50
2019-04-25T15:36:27.195Z,101720.56
2019-04-25T15:39:03.100Z,101712.48
2019-04-25T15:41:39.529Z,101715.50
2019-04-25T15:44:29.141Z,101713.94
2019-04-25T15:47:02.350Z,101718.78
2019-04-25T15:49:34.570Z,101711.11
2019-04-25T15:52:07.717Z,101711.30
2019-04-25T15:54:39.464Z,101705.92
2019-04-25T15:57:11.263Z,101703.82
2019-04-25T15:59:42.831Z,101707.34
2019-04-25T16:02:14.638Z,101699.91
2019-04-25T16:04:46.367Z,101701.35
2019-04-25T16:07:17.950Z,101706.62
2019-04-25T16:09:49.647Z,101703.64
2019-04-25T16:12:21.438Z,101702.25
2019-04-25T16:14:53.023Z,101700.47
2019-04-25T16:17:27.126Z,101704.83
2019-04-25T16:19:58.960Z,101711.20
2019-04-25T16:22:30.663Z,101701.16
2019-04-25T16:25:02.240Z,101700.47
2019-04-25T16:27:33.851Z,101703.66
2019-04-25T16:30:07.729Z,101702.81
2019-04-25T16:32:39.328Z,101699.48
2019-04-25T16:35:11.005Z,101706.83
2019-04-25T16:37:42.696Z,101707.67
2019-04-25T16:40:14.431Z,101702.91
2019-04-25T16:42:46.889Z,101700.78
2019-04-25T16:45:19.207Z,101709.05
2019-04-25T16:47:50.987Z,101707.86
2019-04-25T16:50:25.767Z,101706.72
2019-04-25T16:53:40.085Z,101709.83
2019-04-25T16:56:11.879Z,101710.58
2019-04-25T16:58:43.541Z,101714.25
2019-04-25T17:01:15.507Z,101715.30
2019-04-25T17:03:47.376Z,101710.23
2019-04-25T17:06:19.465Z,101723.95
2019-04-25T17:08:50.990Z,101724.20
2019-04-25T17:11:22.850Z,101722.27
2019-04-25T17:13:58.709Z,101721.38
2019-04-25T17:16:34.862Z,101720.95
2019-04-25T17:19:08.126Z,101721.73
2019-04-25T17:21:41.048Z,101734.93
2019-04-25T17:24:13.010Z,101730.39
2019-04-25T17:26:44.878Z,101736.11
2019-04-25T17:29:18.376Z,101737.48
2019-04-25T17:31:57.918Z,101740.97
2019-04-25T17:34:46.965Z,101735.77
2019-04-25T17:37:20.565Z,101743.78
2019-04-25T17:39:56.932Z,101737.44
2019-04-25T17:42:28.601Z,101748.63
2019-04-25T17:45:00.461Z,101743.09
2019-04-25T17:47:33.121Z,101738.27
2019-04-25T17:50:07.143Z,101745.60
2019-04-25T17:52:38.700Z,101748.80
2019-04-25T17:55:10.769Z,101747.34
2019-04-25T17:57:42.339Z,101747.03
2019-04-25T18:02:58.691Z,101753.27
2019-04-25T18:05:24.356Z,101751.79
2019-04-25T18:07:56.051Z,101750.94
2019-04-25T18:10:28.617Z,101751.80
2019-04-25T18:13:00.467Z,101754.82
2019-04-25T18:15:34.062Z,101753.80
2019-04-25T18:18:07.354Z,101749.45
2019-04-25T18:20:41.022Z,101747.42
2019-04-25T18:23:14.463Z,101748.27
2019-04-25T18:26:04.234Z,101752.36
2019-04-25T18:28:43.675Z,101757.33
2019-04-25T18:31:15.731Z,101752.72
2019-04-25T18:33:49.538Z,101761.29
2019-04-25T18:36:39.205Z,101756.94
2019-04-25T18:39:18.746Z,101750.55
2019-04-25T18:42:04.112Z,101754.77
2019-04-25T18:44:36.707Z,101753.91
2019-04-25T18:47:08.348Z,101751.91
2019-04-25T18:49:48.512Z,101750.08
2019-04-25T18:52:38.639Z,101756.53
2019-04-25T18:55:13.410Z,101758.04
2019-04-25T18:58:01.953Z,101755.36
2019-04-25T19:00:49.777Z,101745.39
2019-04-25T19:03:52.850Z,101747.44
2019-04-25T19:06:52.782Z,101746.50
2019-04-25T19:09:20.554Z,101745.91
2019-04-25T19:12:00.305Z,101746.34
2019-04-25T19:14:35.098Z,101746.20
2019-04-25T19:17:11.569Z,101746.31
2019-04-25T19:19:45.620Z,101743.14
2019-04-25T19:29:52.483Z,101734.05
2019-04-25T19:32:23.899Z,101739.41
2019-04-25T19:35:09.073Z,101739.64
2019-04-25T19:37:41.845Z,101743.42
2019-04-25T19:40:37.453Z,101739.28
2019-04-25T19:43:16.711Z,101733.64
2019-04-25T19:46:06.735Z,101736.02
2019-04-25T19:48:41.319Z,101731.92
2019-04-25T19:51:14.426Z,101733.48
2019-04-25T19:53:47.541Z,101735.30
2019-04-25T19:56:19.207Z,101728.06
2019-04-25T19:58:52.847Z,101732.19
2019-04-25T20:01:24.845Z,101734.84
2019-04-25T20:04:17.027Z,101737.00
2019-04-25T20:07:06.699Z,101732.70
2019-04-25T20:09:53.158Z,101739.96
2019-04-25T20:12:30.742Z,101739.74
2019-04-25T20:15:03.801Z,101743.34
2019-04-25T20:17:39.723Z,101738.51
2019-04-25T20:20:29.768Z,101740.58
2019-04-25T20:23:02.812Z,101736.13
2019-04-25T20:25:36.310Z,101741.89
2019-04-25T20:28:27.339Z,101740.06
2019-04-25T20:30:58.886Z,101736.19
2019-04-25T20:33:32.274Z,101732.71
2019-04-25T20:36:17.011Z,101742.08
2019-04-25T20:38:40.641Z,101737.06
2019-04-25T20:41:13.153Z,101738.04
2019-04-25T20:43:47.543Z,101735.42
2019-04-25T20:46:19.518Z,101737.23
2019-04-25T20:48:52.316Z,101739.25
2019-04-25T20:51:24.376Z,101740.11
2019-04-25T20:53:57.084Z,101738.70
2019-04-25T20:56:28.740Z,101736.55
2019-04-25T20:59:00.250Z,101739.56
2019-04-25T21:01:32.597Z,101736.16
2019-04-25T21:04:12.985Z,101742.41
2019-04-25T21:06:43.414Z,101737.81
2019-04-25T21:09:17.621Z,101739.53
2019-04-25T21:11:51.283Z,101736.70
2019-04-25T21:14:26.441Z,101740.17
2019-04-25T21:17:04.221Z,101744.08
2019-04-25T21:19:38.124Z,101737.21
2019-04-25T21:22:11.048Z,101736.76
2019-04-25T21:24:42.956Z,101736.77
2019-04-25T21:27:16.599Z,101745.23
2019-04-25T21:29:49.709Z,101744.60
2019-04-25T21:32:22.778Z,101747.30
2019-04-25T21:34:57.321Z,101744.97
2019-04-25T21:37:28.838Z,101744.70
2019-04-25T21:40:07.840Z,101748.28
2019-04-25T21:42:41.384Z,101742.86
2019-04-25T21:45:14.099Z,101744.86
2019-04-25T21:47:45.670Z,101741.03
2019-04-25T21:50:22.024Z,101747.68
2019-04-25T21:52:55.392Z,101752.55
2019-04-25T21:55:27.271Z,101743.16
2019-04-25T21:57:59.057Z,101750.54
2019-04-25T22:00:51.543Z,101751.38
2019-04-25T22:03:27.020Z,101752.31
2019-04-25T22:05:58.989Z,101754.61
2019-04-25T22:08:31.024Z,101748.80
2019-04-25T22:11:03.392Z,101747.45
2019-04-25T22:13:36.909Z,101747.57
2019-04-25T22:16:13.240Z,101750.72
2019-04-25T22:18:45.218Z,101745.09
2019-04-25T22:21:17.150Z,101745.91
2019-04-25T22:24:03.143Z,101745.00
2019-04-25T22:26:25.336Z,101738.95
2019-04-25T22:28:57.797Z,101741.84
2019-04-25T22:31:31.457Z,101739.05
2019-04-25T22:34:10.540Z,101744.42
2019-04-25T22:36:42.709Z,101739.82
2019-04-25T22:39:15.871Z,101737.50
2019-04-25T22:41:50.165Z,101734.77
2019-04-25T22:44:22.630Z,101736.80
2019-04-25T22:47:14.024Z,101739.19
2019-04-25T22:49:47.485Z,101741.02
2019-04-25T22:52:20.313Z,101741.64
2019-04-25T22:54:52.990Z,101738.28
2019-04-25T22:57:25.058Z,101741.64
2019-04-25T22:59:57.056Z,101744.79
2019-04-25T23:02:43.472Z,101739.82
2019-04-25T23:05:16.651Z,101740.03
2019-04-25T23:07:49.339Z,101740.91
2019-04-25T23:10:21.186Z,101743.95
2019-04-25T23:12:52.807Z,101745.22
2019-04-25T23:15:24.461Z,101744.72
2019-04-25T23:17:57.876Z,101743.39
2019-04-25T23:20:29.510Z,101740.27
2019-04-25T23:23:04.172Z,101743.26
2019-04-25T23:25:38.080Z,101740.59
2019-04-25T23:28:14.400Z,101735.34
2019-04-25T23:30:58.836Z,101734.02
2019-04-25T23:33:30.452Z,101734.17
2019-04-25T23:36:02.401Z,101735.07
2019-04-25T23:38:33.982Z,101732.70
2019-04-25T23:41:07.166Z,101732.63
2019-04-25T23:43:39.830Z,101731.15
2019-04-25T23:46:11.972Z,101730.59
2019-04-25T23:48:44.452Z,101729.19
2019-04-25T23:51:16.114Z,101720.92
2019-04-25T23:53:47.878Z,101726.27
2019-04-25T23:56:19.546Z,101725.91
2019-04-25T23:58:51.403Z,101721.22
